QLK2406 YBAS-YBBN
Flight info
| Callsign | QLK2406 |
|---|---|
| Flight time | 2h 16m |
| Altitude | 39000 |
| Route | PULOL T11 ROM Y166 IDLEG V327 IGUPI Y340 LAMUG Y177 SMOKA |
| Aircraft | E190/M-SDGHIRWYZ/EB1 |
Departure
| Time | 2026-04-19 07:18 |
|---|---|
| Airport | Alice Springs Airport (YBAS) |
Arrival
| Time | 2026-04-19 09:34 |
|---|---|
| Airport | Brisbane International Airport (YBBN) |
| Time | Latitude | Longitude | Altitude | Speed | Heading |
|---|---|---|---|---|---|
| 2026-04-19 07:02 | -23.80337 | 133.90231 | 1791 ft | 0 kts | 71° |
| 2026-04-19 07:15 | -23.80342 | 133.90236 | 1792 ft | 2 kts | 128° |
| 2026-04-19 07:15 | -23.80358 | 133.90216 | 1792 ft | 5 kts | 246° |
| 2026-04-19 07:15 | -23.80304 | 133.90057 | 1792 ft | 14 kts | 281° |
| 2026-04-19 07:16 | -23.80366 | 133.89977 | 1790 ft | 16 kts | 211° |
| 2026-04-19 07:16 | -23.80391 | 133.89873 | 1789 ft | 18 kts | 298° |
| 2026-04-19 07:16 | -23.80311 | 133.89725 | 1788 ft | 27 kts | 301° |
| 2026-04-19 07:16 | -23.80211 | 133.89540 | 1790 ft | 29 kts | 301° |
| 2026-04-19 07:17 | -23.80099 | 133.89383 | 1791 ft | 17 kts | 301° |
| 2026-04-19 07:17 | -23.80122 | 133.89370 | 1790 ft | 5 kts | 128° |
| 2026-04-19 07:17 | -23.80194 | 133.89506 | 1789 ft | 52 kts | 121° |
| 2026-04-19 07:17 | -23.80500 | 133.90075 | 1789 ft | 122 kts | 120° |
| 2026-04-19 07:18 | -23.81004 | 133.91022 | 2158 ft | 156 kts | 120° |
| 2026-04-19 07:18 | -23.81566 | 133.92083 | 2546 ft | 160 kts | 122° |
| 2026-04-19 07:18 | -23.82151 | 133.93155 | 2436 ft | 166 kts | 123° |
| 2026-04-19 07:18 | -23.82744 | 133.94271 | 2974 ft | 184 kts | 120° |
| 2026-04-19 07:19 | -23.83428 | 133.95551 | 3666 ft | 206 kts | 120° |
| 2026-04-19 07:19 | -23.84218 | 133.96987 | 4421 ft | 231 kts | 121° |
| 2026-04-19 07:19 | -23.85022 | 133.98554 | 5388 ft | 248 kts | 117° |
| 2026-04-19 07:19 | -23.85782 | 134.00311 | 6289 ft | 262 kts | 114° |
| 2026-04-19 07:20 | -23.86491 | 134.02157 | 7392 ft | 265 kts | 112° |
| 2026-04-19 07:20 | -23.87129 | 134.04063 | 8482 ft | 268 kts | 110° |
| 2026-04-19 07:20 | -23.87687 | 134.05993 | 9558 ft | 272 kts | 108° |
| 2026-04-19 07:20 | -23.88175 | 134.08011 | 10441 ft | 283 kts | 105° |
| 2026-04-19 07:21 | -23.88599 | 134.10178 | 11053 ft | 301 kts | 102° |
| 2026-04-19 07:21 | -23.88933 | 134.12493 | 11766 ft | 315 kts | 99° |
| 2026-04-19 07:21 | -23.89156 | 134.14919 | 12613 ft | 327 kts | 96° |
| 2026-04-19 07:21 | -23.89260 | 134.17453 | 13432 ft | 338 kts | 92° |
| 2026-04-19 07:22 | -23.89222 | 134.20068 | 14249 ft | 350 kts | 89° |
| 2026-04-19 07:22 | -23.89030 | 134.22750 | 15109 ft | 359 kts | 85° |
| 2026-04-19 07:22 | -23.88708 | 134.25487 | 15987 ft | 367 kts | 86° |
| 2026-04-19 07:22 | -23.88865 | 134.28244 | 16809 ft | 372 kts | 103° |
| 2026-04-19 07:23 | -23.89505 | 134.31049 | 17320 ft | 389 kts | 107° |
| 2026-04-19 07:23 | -23.90233 | 134.33959 | 17951 ft | 397 kts | 107° |
| 2026-04-19 07:23 | -23.90939 | 134.36886 | 18858 ft | 400 kts | 107° |
| 2026-04-19 07:23 | -23.91649 | 134.39846 | 19590 ft | 405 kts | 106° |
| 2026-04-19 07:24 | -23.92363 | 134.42839 | 20273 ft | 410 kts | 106° |
| 2026-04-19 07:24 | -23.93085 | 134.45883 | 20980 ft | 415 kts | 106° |
| 2026-04-19 07:24 | -23.93810 | 134.48953 | 21707 ft | 418 kts | 106° |
| 2026-04-19 07:24 | -23.94542 | 134.52056 | 22458 ft | 421 kts | 106° |
| 2026-04-19 07:25 | -23.95264 | 134.55122 | 23222 ft | 422 kts | 106° |
| 2026-04-19 07:25 | -23.95997 | 134.58239 | 23937 ft | 423 kts | 106° |
| 2026-04-19 07:25 | -23.96731 | 134.61368 | 24439 ft | 427 kts | 106° |
| 2026-04-19 07:25 | -23.97472 | 134.64529 | 24941 ft | 431 kts | 106° |
| 2026-04-19 07:26 | -23.98221 | 134.67721 | 25461 ft | 434 kts | 106° |
| 2026-04-19 07:26 | -23.98970 | 134.70920 | 25992 ft | 436 kts | 107° |
| 2026-04-19 07:26 | -23.99722 | 134.74136 | 26551 ft | 438 kts | 107° |
| 2026-04-19 07:26 | -24.00479 | 134.77375 | 27105 ft | 439 kts | 107° |
| 2026-04-19 07:27 | -24.01233 | 134.80609 | 27671 ft | 440 kts | 107° |
| 2026-04-19 07:27 | -24.01992 | 134.83859 | 28243 ft | 439 kts | 108° |
| 2026-04-19 07:27 | -24.02744 | 134.87094 | 28824 ft | 439 kts | 108° |
| 2026-04-19 07:27 | -24.03486 | 134.90282 | 29404 ft | 437 kts | 108° |
| 2026-04-19 07:28 | -24.04233 | 134.93499 | 29996 ft | 435 kts | 109° |
| 2026-04-19 07:28 | -24.04975 | 134.96699 | 30516 ft | 431 kts | 108° |
| 2026-04-19 07:28 | -24.05709 | 134.99867 | 31020 ft | 427 kts | 108° |
| 2026-04-19 07:28 | -24.06435 | 135.03001 | 31523 ft | 423 kts | 108° |
| 2026-04-19 07:29 | -24.07153 | 135.06107 | 32027 ft | 418 kts | 107° |
| 2026-04-19 07:29 | -24.07862 | 135.09173 | 32532 ft | 412 kts | 107° |
| 2026-04-19 07:29 | -24.08562 | 135.12202 | 32950 ft | 411 kts | 107° |
| 2026-04-19 07:29 | -24.09264 | 135.15240 | 33246 ft | 411 kts | 107° |
| 2026-04-19 07:30 | -24.09963 | 135.18271 | 33581 ft | 410 kts | 106° |
| 2026-04-19 07:30 | -24.10657 | 135.21285 | 33923 ft | 408 kts | 106° |
| 2026-04-19 07:30 | -24.11339 | 135.24248 | 34231 ft | 405 kts | 106° |
| 2026-04-19 07:30 | -24.12024 | 135.27227 | 34518 ft | 402 kts | 107° |
| 2026-04-19 07:31 | -24.12703 | 135.30181 | 34793 ft | 399 kts | 107° |
| 2026-04-19 07:31 | -24.14068 | 135.36135 | 34921 ft | 408 kts | 107° |
| 2026-04-19 07:32 | -24.15470 | 135.42244 | 35062 ft | 419 kts | 107° |
| 2026-04-19 07:32 | -24.16903 | 135.48506 | 35194 ft | 430 kts | 107° |
| 2026-04-19 07:33 | -24.18373 | 135.54947 | 35313 ft | 442 kts | 107° |
| 2026-04-19 07:33 | -24.19887 | 135.61595 | 35395 ft | 456 kts | 107° |
| 2026-04-19 07:34 | -24.21175 | 135.67267 | 35447 ft | 468 kts | 107° |
| 2026-04-19 07:34 | -24.21638 | 135.69304 | 35464 ft | 473 kts | 107° |
| 2026-04-19 07:35 | -24.23110 | 135.75777 | 35450 ft | 488 kts | 107° |
| 2026-04-19 07:36 | -24.23948 | 135.79477 | 35550 ft | 494 kts | 106° |
| 2026-04-19 07:37 | -24.24277 | 135.80928 | 35582 ft | 496 kts | 106° |
| 2026-04-19 07:39 | -24.24720 | 135.82895 | 35628 ft | 499 kts | 106° |
| 2026-04-19 07:40 | -24.25075 | 135.84473 | 35673 ft | 501 kts | 106° |
| 2026-04-19 07:41 | -24.25242 | 135.85214 | 35699 ft | 502 kts | 106° |
| 2026-04-19 07:41 | -24.25555 | 135.86604 | 35721 ft | 504 kts | 106° |
| 2026-04-19 07:42 | -24.25612 | 135.86859 | 35725 ft | 505 kts | 106° |
| 2026-04-19 07:42 | -24.27311 | 135.94420 | 35909 ft | 514 kts | 106° |
| 2026-04-19 07:42 | -24.28171 | 135.98241 | 36027 ft | 518 kts | 107° |
| 2026-04-19 07:43 | -24.29028 | 136.02056 | 36130 ft | 522 kts | 106° |
| 2026-04-19 07:43 | -24.30779 | 136.09867 | 36357 ft | 529 kts | 107° |
| 2026-04-19 07:44 | -24.32544 | 136.17748 | 36548 ft | 534 kts | 106° |
| 2026-04-19 07:44 | -24.33422 | 136.21679 | 36654 ft | 537 kts | 106° |
| 2026-04-19 07:44 | -24.34307 | 136.25669 | 36762 ft | 539 kts | 106° |
| 2026-04-19 07:44 | -24.35199 | 136.29676 | 36870 ft | 542 kts | 106° |
| 2026-04-19 07:45 | -24.36096 | 136.33698 | 36984 ft | 544 kts | 107° |
| 2026-04-19 07:45 | -24.36989 | 136.37723 | 37201 ft | 542 kts | 106° |
| 2026-04-19 07:45 | -24.37877 | 136.41726 | 37593 ft | 537 kts | 107° |
| 2026-04-19 07:45 | -24.38762 | 136.45717 | 37932 ft | 534 kts | 107° |
| 2026-04-19 07:46 | -24.39009 | 136.46830 | 38028 ft | 533 kts | 107° |
| 2026-04-19 07:46 | -24.39618 | 136.49588 | 38201 ft | 532 kts | 107° |
| 2026-04-19 07:46 | -24.40477 | 136.53479 | 38469 ft | 530 kts | 107° |
| 2026-04-19 07:46 | -24.41342 | 136.57412 | 38726 ft | 529 kts | 107° |
| 2026-04-19 07:47 | -24.42219 | 136.61333 | 38887 ft | 529 kts | 107° |
| 2026-04-19 07:47 | -24.43083 | 136.65268 | 39041 ft | 529 kts | 107° |
| 2026-04-19 07:47 | -24.43941 | 136.69196 | 39096 ft | 532 kts | 107° |
| 2026-04-19 07:48 | -24.45683 | 136.77159 | 39129 ft | 539 kts | 107° |
| 2026-04-19 07:48 | -24.47429 | 136.85219 | 39156 ft | 545 kts | 106° |
| 2026-04-19 07:49 | -24.49172 | 136.93284 | 39129 ft | 546 kts | 106° |
| 2026-04-19 07:49 | -24.50931 | 137.01414 | 39047 ft | 547 kts | 106° |
| 2026-04-19 07:50 | -24.52683 | 137.09532 | 39110 ft | 546 kts | 106° |
| 2026-04-19 07:50 | -24.54436 | 137.17671 | 39103 ft | 548 kts | 106° |
| 2026-04-19 07:51 | -24.56173 | 137.25759 | 39083 ft | 547 kts | 106° |
| 2026-04-19 07:51 | -24.57918 | 137.33901 | 39081 ft | 547 kts | 106° |
| 2026-04-19 07:52 | -24.59659 | 137.42054 | 39057 ft | 548 kts | 106° |
| 2026-04-19 07:52 | -24.61400 | 137.50224 | 39074 ft | 548 kts | 106° |
| 2026-04-19 07:53 | -24.63123 | 137.58337 | 39076 ft | 548 kts | 106° |
| 2026-04-19 07:53 | -24.64856 | 137.66517 | 39078 ft | 549 kts | 105° |
| 2026-04-19 07:54 | -24.66585 | 137.74706 | 39087 ft | 549 kts | 105° |
| 2026-04-19 07:54 | -24.68307 | 137.82892 | 39076 ft | 550 kts | 105° |
| 2026-04-19 07:55 | -24.70023 | 137.91072 | 39075 ft | 548 kts | 105° |
| 2026-04-19 07:55 | -24.71722 | 137.99187 | 39080 ft | 548 kts | 105° |
| 2026-04-19 07:56 | -24.73428 | 138.07360 | 39082 ft | 548 kts | 105° |
| 2026-04-19 07:56 | -24.75131 | 138.15544 | 39075 ft | 549 kts | 105° |
| 2026-04-19 07:57 | -24.76830 | 138.23735 | 39083 ft | 549 kts | 105° |
| 2026-04-19 07:57 | -24.78530 | 138.31949 | 39070 ft | 550 kts | 105° |
| 2026-04-19 07:58 | -24.80226 | 138.40171 | 39076 ft | 550 kts | 105° |
| 2026-04-19 07:58 | -24.81907 | 138.48338 | 39075 ft | 550 kts | 104° |
| 2026-04-19 07:59 | -24.83592 | 138.56555 | 39070 ft | 550 kts | 104° |
| 2026-04-19 07:59 | -24.85273 | 138.64779 | 39071 ft | 550 kts | 104° |
| 2026-04-19 08:00 | -24.86952 | 138.73010 | 39078 ft | 551 kts | 104° |
| 2026-04-19 08:00 | -24.88628 | 138.81252 | 39076 ft | 552 kts | 104° |
| 2026-04-19 08:01 | -24.90304 | 138.89511 | 39071 ft | 552 kts | 104° |
| 2026-04-19 08:01 | -24.91965 | 138.97729 | 39073 ft | 552 kts | 104° |
| 2026-04-19 08:02 | -24.93632 | 139.05989 | 39070 ft | 552 kts | 104° |
| 2026-04-19 08:02 | -24.95295 | 139.14270 | 39073 ft | 553 kts | 104° |
| 2026-04-19 08:03 | -24.96954 | 139.22552 | 39075 ft | 554 kts | 104° |
| 2026-04-19 08:03 | -24.98611 | 139.30846 | 39072 ft | 554 kts | 104° |
| 2026-04-19 08:04 | -25.00253 | 139.39094 | 39068 ft | 554 kts | 104° |
| 2026-04-19 08:04 | -25.01902 | 139.47406 | 39072 ft | 554 kts | 104° |
| 2026-04-19 08:05 | -25.03545 | 139.55703 | 39063 ft | 555 kts | 104° |
| 2026-04-19 08:05 | -25.05189 | 139.64015 | 39073 ft | 554 kts | 104° |
| 2026-04-19 08:06 | -25.06824 | 139.72315 | 39058 ft | 552 kts | 103° |
| 2026-04-19 08:06 | -25.08443 | 139.80552 | 39067 ft | 553 kts | 103° |
| 2026-04-19 08:07 | -25.10061 | 139.88869 | 39067 ft | 554 kts | 103° |
| 2026-04-19 08:07 | -25.11682 | 139.97186 | 39072 ft | 554 kts | 103° |
| 2026-04-19 08:08 | -25.13301 | 140.05499 | 39064 ft | 555 kts | 103° |
| 2026-04-19 08:08 | -25.14916 | 140.13819 | 39065 ft | 554 kts | 103° |
| 2026-04-19 08:09 | -25.16520 | 140.22111 | 39056 ft | 556 kts | 103° |
| 2026-04-19 08:09 | -25.18134 | 140.30460 | 39064 ft | 556 kts | 103° |
| 2026-04-19 08:10 | -25.19739 | 140.38820 | 39065 ft | 556 kts | 103° |
| 2026-04-19 08:10 | -25.21334 | 140.47187 | 39061 ft | 556 kts | 103° |
| 2026-04-19 08:11 | -25.22903 | 140.55414 | 39063 ft | 556 kts | 103° |
| 2026-04-19 08:11 | -25.24492 | 140.63781 | 39063 ft | 556 kts | 103° |
| 2026-04-19 08:12 | -25.26069 | 140.72082 | 39066 ft | 557 kts | 103° |
| 2026-04-19 08:12 | -25.26857 | 140.76274 | 39887 ft | 557 kts | 102° |
| 2026-04-19 08:12 | -25.27628 | 140.80369 | 38896 ft | 535 kts | 103° |
| 2026-04-19 08:12 | -25.28382 | 140.84327 | 39018 ft | 531 kts | 103° |
| 2026-04-19 08:13 | -25.29138 | 140.88321 | 39087 ft | 535 kts | 103° |
| 2026-04-19 08:13 | -25.30658 | 140.96445 | 39090 ft | 543 kts | 103° |
| 2026-04-19 08:14 | -25.32208 | 141.04679 | 39121 ft | 551 kts | 102° |
| 2026-04-19 08:14 | -25.34540 | 141.17245 | 39064 ft | 558 kts | 102° |
| 2026-04-19 08:15 | -25.36071 | 141.25691 | 39060 ft | 559 kts | 102° |
| 2026-04-19 08:15 | -25.37603 | 141.34067 | 39062 ft | 559 kts | 102° |
| 2026-04-19 08:16 | -25.39152 | 141.42503 | 39058 ft | 559 kts | 102° |
| 2026-04-19 08:16 | -25.40699 | 141.50938 | 39057 ft | 559 kts | 102° |
| 2026-04-19 08:17 | -25.42238 | 141.59366 | 39073 ft | 557 kts | 102° |
| 2026-04-19 08:17 | -25.43772 | 141.67785 | 39064 ft | 558 kts | 102° |
| 2026-04-19 08:18 | -25.45294 | 141.76163 | 39064 ft | 558 kts | 102° |
| 2026-04-19 08:18 | -25.46821 | 141.84602 | 39051 ft | 559 kts | 102° |
| 2026-04-19 08:19 | -25.48342 | 141.93040 | 39060 ft | 559 kts | 102° |
| 2026-04-19 08:19 | -25.49861 | 142.01486 | 39055 ft | 559 kts | 102° |
| 2026-04-19 08:20 | -25.51374 | 142.09939 | 39057 ft | 560 kts | 102° |
| 2026-04-19 08:20 | -25.52887 | 142.18408 | 39057 ft | 560 kts | 102° |
| 2026-04-19 08:21 | -25.54384 | 142.26818 | 39060 ft | 560 kts | 102° |
| 2026-04-19 08:21 | -25.55887 | 142.35296 | 39062 ft | 560 kts | 102° |
| 2026-04-19 08:22 | -25.57387 | 142.43771 | 39056 ft | 561 kts | 102° |
| 2026-04-19 08:22 | -25.58629 | 142.50818 | 39059 ft | 561 kts | 102° |
| 2026-04-19 08:23 | -25.60121 | 142.59312 | 39059 ft | 562 kts | 102° |
| 2026-04-19 08:23 | -25.61609 | 142.67820 | 39057 ft | 562 kts | 102° |
| 2026-04-19 08:24 | -25.63095 | 142.76328 | 39057 ft | 562 kts | 102° |
| 2026-04-19 08:24 | -25.64576 | 142.84845 | 39054 ft | 563 kts | 102° |
| 2026-04-19 08:25 | -25.66044 | 142.93313 | 39059 ft | 563 kts | 102° |
| 2026-04-19 08:25 | -25.67515 | 143.01841 | 39063 ft | 563 kts | 102° |
| 2026-04-19 08:26 | -25.68982 | 143.10380 | 39053 ft | 564 kts | 101° |
| 2026-04-19 08:26 | -25.70441 | 143.18920 | 39053 ft | 564 kts | 102° |
| 2026-04-19 08:27 | -25.71891 | 143.27409 | 39060 ft | 564 kts | 102° |
| 2026-04-19 08:27 | -25.73342 | 143.35974 | 39057 ft | 565 kts | 101° |
| 2026-04-19 08:28 | -25.74801 | 143.44545 | 39056 ft | 564 kts | 102° |
| 2026-04-19 08:28 | -25.76242 | 143.53110 | 39058 ft | 565 kts | 102° |
| 2026-04-19 08:29 | -25.77688 | 143.61684 | 39057 ft | 564 kts | 101° |
| 2026-04-19 08:29 | -25.79124 | 143.70223 | 39058 ft | 563 kts | 101° |
| 2026-04-19 08:30 | -25.80536 | 143.78722 | 39049 ft | 564 kts | 101° |
| 2026-04-19 08:30 | -25.81965 | 143.87290 | 39066 ft | 565 kts | 101° |
| 2026-04-19 08:31 | -25.83389 | 143.95875 | 39062 ft | 565 kts | 101° |
| 2026-04-19 08:31 | -25.84801 | 144.04459 | 39062 ft | 564 kts | 101° |
| 2026-04-19 08:32 | -25.86213 | 144.13036 | 39065 ft | 565 kts | 101° |
| 2026-04-19 08:32 | -25.87627 | 144.21560 | 39067 ft | 565 kts | 101° |
| 2026-04-19 08:33 | -25.89040 | 144.30156 | 39068 ft | 565 kts | 101° |
| 2026-04-19 08:33 | -25.90408 | 144.38760 | 39066 ft | 565 kts | 101° |
| 2026-04-19 08:34 | -25.91766 | 144.47363 | 39067 ft | 565 kts | 101° |
| 2026-04-19 08:34 | -25.93140 | 144.55978 | 39071 ft | 566 kts | 101° |
| 2026-04-19 08:35 | -25.94514 | 144.64604 | 39063 ft | 566 kts | 101° |
| 2026-04-19 08:35 | -25.95875 | 144.73156 | 39068 ft | 566 kts | 101° |
| 2026-04-19 08:36 | -25.97242 | 144.81785 | 39072 ft | 567 kts | 101° |
| 2026-04-19 08:36 | -25.98610 | 144.90442 | 39073 ft | 568 kts | 101° |
| 2026-04-19 08:37 | -25.99971 | 144.99092 | 39078 ft | 567 kts | 101° |
| 2026-04-19 08:37 | -26.01318 | 145.07694 | 39083 ft | 568 kts | 101° |
| 2026-04-19 08:38 | -26.02672 | 145.16370 | 39080 ft | 569 kts | 101° |
| 2026-04-19 08:38 | -26.04019 | 145.25037 | 39077 ft | 569 kts | 101° |
| 2026-04-19 08:39 | -26.05033 | 145.31581 | 39082 ft | 576 kts | 101° |
| 2026-04-19 08:39 | -26.05758 | 145.36267 | 39066 ft | 579 kts | 101° |
| 2026-04-19 08:40 | -26.07122 | 145.45122 | 39082 ft | 580 kts | 101° |
| 2026-04-19 08:40 | -26.08483 | 145.53998 | 39087 ft | 581 kts | 101° |
| 2026-04-19 08:41 | -26.09840 | 145.62874 | 39082 ft | 582 kts | 101° |
| 2026-04-19 08:41 | -26.11183 | 145.71690 | 39084 ft | 581 kts | 101° |
| 2026-04-19 08:42 | -26.12527 | 145.80582 | 39087 ft | 582 kts | 101° |
| 2026-04-19 08:42 | -26.13869 | 145.89482 | 39084 ft | 582 kts | 101° |
| 2026-04-19 08:43 | -26.15203 | 145.98373 | 39080 ft | 582 kts | 101° |
| 2026-04-19 08:43 | -26.16537 | 146.07270 | 39077 ft | 583 kts | 101° |
| 2026-04-19 08:44 | -26.17858 | 146.16133 | 39080 ft | 583 kts | 101° |
| 2026-04-19 08:44 | -26.19179 | 146.25056 | 39086 ft | 583 kts | 101° |
| 2026-04-19 08:45 | -26.20495 | 146.33978 | 39072 ft | 584 kts | 101° |
| 2026-04-19 08:45 | -26.21807 | 146.42897 | 39078 ft | 583 kts | 101° |
| 2026-04-19 08:46 | -26.23114 | 146.51810 | 39080 ft | 583 kts | 101° |
| 2026-04-19 08:46 | -26.24424 | 146.60743 | 39084 ft | 583 kts | 101° |
| 2026-04-19 08:47 | -26.25712 | 146.69604 | 39086 ft | 583 kts | 101° |
| 2026-04-19 08:47 | -26.27013 | 146.78534 | 39095 ft | 583 kts | 101° |
| 2026-04-19 08:48 | -26.28298 | 146.87471 | 39091 ft | 584 kts | 101° |
| 2026-04-19 08:48 | -26.29575 | 146.96422 | 39101 ft | 584 kts | 101° |
| 2026-04-19 08:49 | -26.30841 | 147.05362 | 39096 ft | 584 kts | 101° |
| 2026-04-19 08:49 | -26.32105 | 147.14248 | 39088 ft | 585 kts | 101° |
| 2026-04-19 08:50 | -26.33374 | 147.23204 | 39103 ft | 584 kts | 101° |
| 2026-04-19 08:50 | -26.34647 | 147.32148 | 39102 ft | 584 kts | 101° |
| 2026-04-19 08:51 | -26.35889 | 147.41105 | 39095 ft | 585 kts | 101° |
| 2026-04-19 08:51 | -26.37150 | 147.50056 | 39107 ft | 584 kts | 102° |
| 2026-04-19 08:52 | -26.38401 | 147.59008 | 39111 ft | 584 kts | 101° |
| 2026-04-19 08:52 | -26.39619 | 147.67967 | 39105 ft | 584 kts | 101° |
| 2026-04-19 08:53 | -26.40843 | 147.76932 | 39109 ft | 584 kts | 101° |
| 2026-04-19 08:53 | -26.42062 | 147.85836 | 39107 ft | 584 kts | 101° |
| 2026-04-19 08:54 | -26.43282 | 147.94790 | 39122 ft | 585 kts | 101° |
| 2026-04-19 08:54 | -26.44504 | 148.03766 | 39101 ft | 585 kts | 101° |
| 2026-04-19 08:55 | -26.45716 | 148.12755 | 39107 ft | 585 kts | 101° |
| 2026-04-19 08:55 | -26.46916 | 148.21746 | 39118 ft | 586 kts | 101° |
| 2026-04-19 08:56 | -26.48109 | 148.30737 | 39108 ft | 585 kts | 101° |
| 2026-04-19 08:56 | -26.49298 | 148.39722 | 39110 ft | 585 kts | 101° |
| 2026-04-19 08:57 | -26.50494 | 148.48707 | 39122 ft | 585 kts | 101° |
| 2026-04-19 08:57 | -26.51681 | 148.57705 | 39108 ft | 586 kts | 101° |
| 2026-04-19 08:58 | -26.52859 | 148.66709 | 39107 ft | 586 kts | 101° |
| 2026-04-19 08:58 | -26.54037 | 148.75679 | 39112 ft | 586 kts | 100° |
| 2026-04-19 08:59 | -26.54166 | 148.80231 | 39135 ft | 588 kts | 84° |
| 2026-04-19 08:59 | -26.53430 | 148.84709 | 39156 ft | 586 kts | 73° |
| 2026-04-19 08:59 | -26.51554 | 148.93577 | 39104 ft | 587 kts | 75° |
| 2026-04-19 09:00 | -26.49876 | 149.02517 | 39105 ft | 588 kts | 76° |
| 2026-04-19 09:00 | -26.48252 | 149.11477 | 39092 ft | 588 kts | 77° |
| 2026-04-19 09:01 | -26.46640 | 149.20430 | 39110 ft | 588 kts | 77° |
| 2026-04-19 09:01 | -26.45031 | 149.29332 | 39100 ft | 588 kts | 76° |
| 2026-04-19 09:02 | -26.43409 | 149.38279 | 39104 ft | 588 kts | 76° |
| 2026-04-19 09:02 | -26.41779 | 149.47237 | 39102 ft | 588 kts | 76° |
| 2026-04-19 09:03 | -26.40144 | 149.56188 | 39098 ft | 588 kts | 76° |
| 2026-04-19 09:03 | -26.38502 | 149.65139 | 39101 ft | 589 kts | 76° |
| 2026-04-19 09:04 | -26.36865 | 149.74044 | 39103 ft | 589 kts | 76° |
| 2026-04-19 09:04 | -26.35216 | 149.82990 | 39124 ft | 588 kts | 76° |
| 2026-04-19 09:05 | -26.33558 | 149.91933 | 39092 ft | 589 kts | 76° |
| 2026-04-19 09:05 | -26.31894 | 150.00889 | 39101 ft | 589 kts | 76° |
| 2026-04-19 09:06 | -26.30234 | 150.09774 | 39101 ft | 589 kts | 76° |
| 2026-04-19 09:06 | -26.28561 | 150.18727 | 39106 ft | 590 kts | 76° |
| 2026-04-19 09:07 | -26.26883 | 150.27674 | 39094 ft | 590 kts | 76° |
| 2026-04-19 09:07 | -26.25197 | 150.36626 | 39092 ft | 590 kts | 76° |
| 2026-04-19 09:08 | -26.23503 | 150.45572 | 39086 ft | 589 kts | 76° |
| 2026-04-19 09:08 | -26.21817 | 150.54442 | 39096 ft | 590 kts | 76° |
| 2026-04-19 09:09 | -26.20113 | 150.63387 | 39093 ft | 590 kts | 76° |
| 2026-04-19 09:09 | -26.18409 | 150.72320 | 39094 ft | 590 kts | 76° |
| 2026-04-19 09:10 | -26.16702 | 150.81257 | 39095 ft | 590 kts | 76° |
| 2026-04-19 09:10 | -26.15093 | 150.90219 | 39098 ft | 590 kts | 85° |
| 2026-04-19 09:11 | -26.15223 | 150.94763 | 39100 ft | 585 kts | 105° |
| 2026-04-19 09:11 | -26.15914 | 150.97634 | 39107 ft | 575 kts | 118° |
| 2026-04-19 09:11 | -26.19572 | 151.07092 | 39080 ft | 574 kts | 119° |
| 2026-04-19 09:12 | -26.22003 | 151.13952 | 39095 ft | 572 kts | 118° |
| 2026-04-19 09:12 | -26.24840 | 151.22250 | 39095 ft | 573 kts | 117° |
| 2026-04-19 09:13 | -26.27632 | 151.30577 | 39093 ft | 574 kts | 117° |
| 2026-04-19 09:13 | -26.30400 | 151.38918 | 39086 ft | 573 kts | 117° |
| 2026-04-19 09:14 | -26.33156 | 151.47264 | 39093 ft | 574 kts | 117° |
| 2026-04-19 09:14 | -26.34535 | 151.51449 | 38780 ft | 579 kts | 117° |
| 2026-04-19 09:14 | -26.35923 | 151.55697 | 37775 ft | 585 kts | 116° |
| 2026-04-19 09:15 | -26.37302 | 151.59950 | 36938 ft | 578 kts | 116° |
| 2026-04-19 09:15 | -26.38667 | 151.64143 | 36126 ft | 572 kts | 116° |
| 2026-04-19 09:15 | -26.41358 | 151.72381 | 34552 ft | 557 kts | 116° |
| 2026-04-19 09:16 | -26.42677 | 151.76415 | 33750 ft | 549 kts | 115° |
| 2026-04-19 09:16 | -26.43979 | 151.80389 | 32897 ft | 541 kts | 115° |
| 2026-04-19 09:16 | -26.45253 | 151.84257 | 32092 ft | 533 kts | 115° |
| 2026-04-19 09:16 | -26.46521 | 151.88122 | 31305 ft | 525 kts | 115° |
| 2026-04-19 09:17 | -26.47762 | 151.91916 | 30552 ft | 517 kts | 114° |
| 2026-04-19 09:17 | -26.48994 | 151.95657 | 29773 ft | 509 kts | 115° |
| 2026-04-19 09:17 | -26.50430 | 151.99223 | 28962 ft | 498 kts | 127° |
| 2026-04-19 09:17 | -26.52578 | 152.02170 | 28366 ft | 483 kts | 142° |
| 2026-04-19 09:18 | -26.55022 | 152.04736 | 27860 ft | 481 kts | 143° |
| 2026-04-19 09:18 | -26.57453 | 152.07319 | 27341 ft | 484 kts | 142° |
| 2026-04-19 09:18 | -26.59888 | 152.09942 | 26820 ft | 486 kts | 142° |
| 2026-04-19 09:18 | -26.62310 | 152.12574 | 26322 ft | 485 kts | 142° |
| 2026-04-19 09:19 | -26.64721 | 152.15206 | 25809 ft | 485 kts | 142° |
| 2026-04-19 09:19 | -26.67111 | 152.17806 | 25306 ft | 486 kts | 141° |
| 2026-04-19 09:19 | -26.69522 | 152.20483 | 24801 ft | 487 kts | 141° |
| 2026-04-19 09:19 | -26.71916 | 152.23151 | 24304 ft | 483 kts | 141° |
| 2026-04-19 09:20 | -26.74285 | 152.25780 | 23813 ft | 472 kts | 140° |
| 2026-04-19 09:20 | -26.76582 | 152.28350 | 23264 ft | 461 kts | 141° |
| 2026-04-19 09:20 | -26.78894 | 152.30786 | 22717 ft | 454 kts | 142° |
| 2026-04-19 09:20 | -26.80918 | 152.33522 | 22061 ft | 461 kts | 124° |
| 2026-04-19 09:21 | -26.82214 | 152.36801 | 21439 ft | 458 kts | 116° |
| 2026-04-19 09:21 | -26.83519 | 152.40020 | 20833 ft | 451 kts | 117° |
| 2026-04-19 09:21 | -26.84861 | 152.43171 | 20168 ft | 444 kts | 121° |
| 2026-04-19 09:21 | -26.86250 | 152.46173 | 19530 ft | 436 kts | 121° |
| 2026-04-19 09:22 | -26.87629 | 152.49172 | 18906 ft | 430 kts | 120° |
| 2026-04-19 09:22 | -26.88981 | 152.52131 | 18283 ft | 424 kts | 120° |
| 2026-04-19 09:22 | -26.90308 | 152.55043 | 17612 ft | 416 kts | 120° |
| 2026-04-19 09:22 | -26.91613 | 152.57909 | 16951 ft | 409 kts | 120° |
| 2026-04-19 09:23 | -26.92891 | 152.60727 | 16320 ft | 403 kts | 120° |
| 2026-04-19 09:23 | -26.94153 | 152.63512 | 15705 ft | 397 kts | 120° |
| 2026-04-19 09:23 | -26.95396 | 152.66251 | 15123 ft | 391 kts | 120° |
| 2026-04-19 09:23 | -26.96616 | 152.68955 | 14547 ft | 386 kts | 120° |
| 2026-04-19 09:24 | -26.97820 | 152.71620 | 13987 ft | 379 kts | 120° |
| 2026-04-19 09:24 | -26.98987 | 152.74210 | 13380 ft | 366 kts | 120° |
| 2026-04-19 09:24 | -27.00099 | 152.76720 | 12799 ft | 353 kts | 119° |
| 2026-04-19 09:24 | -27.01115 | 152.79191 | 12226 ft | 344 kts | 116° |
| 2026-04-19 09:25 | -27.02015 | 152.81604 | 11709 ft | 335 kts | 116° |
| 2026-04-19 09:25 | -27.02903 | 152.83987 | 11205 ft | 327 kts | 116° |
| 2026-04-19 09:25 | -27.03765 | 152.86315 | 10718 ft | 319 kts | 115° |
| 2026-04-19 09:25 | -27.04605 | 152.88590 | 10256 ft | 312 kts | 116° |
| 2026-04-19 09:26 | -27.05407 | 152.90770 | 9759 ft | 291 kts | 115° |
| 2026-04-19 09:26 | -27.06159 | 152.92818 | 9287 ft | 281 kts | 116° |
| 2026-04-19 09:26 | -27.06904 | 152.94832 | 8838 ft | 278 kts | 116° |
| 2026-04-19 09:26 | -27.07598 | 152.96767 | 8419 ft | 277 kts | 112° |
| 2026-04-19 09:27 | -27.08065 | 152.98868 | 8001 ft | 277 kts | 104° |
| 2026-04-19 09:27 | -27.08436 | 153.00986 | 7589 ft | 275 kts | 105° |
| 2026-04-19 09:27 | -27.08837 | 153.03055 | 7203 ft | 274 kts | 105° |
| 2026-04-19 09:27 | -27.09250 | 153.05140 | 6800 ft | 273 kts | 106° |
| 2026-04-19 09:28 | -27.09667 | 153.07211 | 6396 ft | 272 kts | 106° |
| 2026-04-19 09:28 | -27.10088 | 153.09274 | 6016 ft | 270 kts | 106° |
| 2026-04-19 09:28 | -27.10547 | 153.11299 | 5654 ft | 265 kts | 114° |
| 2026-04-19 09:28 | -27.11510 | 153.13007 | 5327 ft | 256 kts | 134° |
| 2026-04-19 09:29 | -27.12729 | 153.14434 | 5059 ft | 249 kts | 137° |
| 2026-04-19 09:29 | -27.13901 | 153.15784 | 4734 ft | 235 kts | 136° |
| 2026-04-19 09:29 | -27.15028 | 153.17098 | 4425 ft | 232 kts | 137° |
| 2026-04-19 09:29 | -27.16122 | 153.18384 | 4151 ft | 230 kts | 136° |
| 2026-04-19 09:30 | -27.17223 | 153.19673 | 3874 ft | 227 kts | 138° |
| 2026-04-19 09:30 | -27.18560 | 153.20560 | 3558 ft | 224 kts | 165° |
| 2026-04-19 09:30 | -27.20110 | 153.20655 | 3231 ft | 225 kts | 184° |
| 2026-04-19 09:30 | -27.21621 | 153.20276 | 2948 ft | 226 kts | 202° |
| 2026-04-19 09:31 | -27.22984 | 153.19419 | 2729 ft | 220 kts | 207° |
| 2026-04-19 09:31 | -27.24321 | 153.18673 | 2483 ft | 207 kts | 201° |
| 2026-04-19 09:31 | -27.25573 | 153.18019 | 2210 ft | 192 kts | 204° |
| 2026-04-19 09:31 | -27.26716 | 153.17326 | 1967 ft | 182 kts | 204° |
| 2026-04-19 09:32 | -27.27819 | 153.16700 | 1742 ft | 170 kts | 202° |
| 2026-04-19 09:32 | -27.28854 | 153.16118 | 1515 ft | 164 kts | 204° |
| 2026-04-19 09:32 | -27.29850 | 153.15537 | 1301 ft | 166 kts | 203° |
| 2026-04-19 09:32 | -27.30871 | 153.14952 | 1086 ft | 163 kts | 202° |
| 2026-04-19 09:33 | -27.31880 | 153.14367 | 873 ft | 158 kts | 203° |
| 2026-04-19 09:33 | -27.32819 | 153.13839 | 657 ft | 149 kts | 201° |
| 2026-04-19 09:33 | -27.33728 | 153.13314 | 470 ft | 148 kts | 204° |
| 2026-04-19 09:33 | -27.34620 | 153.12784 | 287 ft | 144 kts | 205° |
| 2026-04-19 09:34 | -27.35508 | 153.12278 | 99 ft | 142 kts | 205° |
| 2026-04-19 09:34 | -27.36365 | 153.11800 | 20 ft | 127 kts | 206° |
| 2026-04-19 09:34 | -27.37004 | 153.11425 | 20 ft | 68 kts | 207° |
| 2026-04-19 09:34 | -27.37278 | 153.11329 | 18 ft | 26 kts | 182° |
| 2026-04-19 09:35 | -27.37387 | 153.11330 | 17 ft | 13 kts | 178° |
| 2026-04-19 09:35 | -27.37436 | 153.11334 | 17 ft | 1 kts | 173° |
| 2026-04-19 09:35 | -27.37447 | 153.11335 | 17 ft | 1 kts | 173° |
| 2026-04-19 09:35 | -27.37472 | 153.11341 | 17 ft | 8 kts | 162° |
| 2026-04-19 09:36 | -27.37524 | 153.11392 | 17 ft | 11 kts | 119° |
| 2026-04-19 09:36 | -27.37498 | 153.11470 | 17 ft | 12 kts | 31° |
| 2026-04-19 09:36 | -27.37415 | 153.11521 | 17 ft | 16 kts | 25° |
| 2026-04-19 09:36 | -27.37328 | 153.11604 | 19 ft | 17 kts | 88° |
| 2026-04-19 09:37 | -27.37383 | 153.11739 | 17 ft | 21 kts | 117° |
| 2026-04-19 09:37 | -27.37450 | 153.11889 | 16 ft | 23 kts | 117° |
| 2026-04-19 09:37 | -27.37525 | 153.12055 | 16 ft | 25 kts | 117° |
| 2026-04-19 09:37 | -27.37607 | 153.12234 | 16 ft | 27 kts | 117° |
| 2026-04-19 09:38 | -27.37696 | 153.12425 | 16 ft | 28 kts | 119° |
| 2026-04-19 09:38 | -27.37793 | 153.12622 | 18 ft | 29 kts | 118° |
| 2026-04-19 09:38 | -27.37883 | 153.12834 | 17 ft | 31 kts | 114° |
| 2026-04-19 09:38 | -27.37987 | 153.12909 | 17 ft | 16 kts | 211° |
| 2026-04-19 09:39 | -27.38119 | 153.12829 | 18 ft | 24 kts | 207° |
| 2026-04-19 09:39 | -27.38273 | 153.12741 | 19 ft | 26 kts | 206° |
| 2026-04-19 09:39 | -27.38375 | 153.12615 | 17 ft | 22 kts | 290° |
| 2026-04-19 09:39 | -27.38281 | 153.12475 | 18 ft | 23 kts | 295° |
| 2026-04-19 09:40 | -27.38223 | 153.12315 | 16 ft | 17 kts | 259° |
| 2026-04-19 09:40 | -27.38260 | 153.12257 | 16 ft | 0 kts | 229° |